createdAt,value
2018-10-03T00:02:16.758Z,98800.81
2018-10-03T00:05:20.912Z,98807.24
2018-10-03T00:08:25.034Z,98802.97
2018-10-03T00:11:29.363Z,98809.41
2018-10-03T00:14:33.482Z,98801.59
2018-10-03T00:17:37.621Z,98809.66
2018-10-03T00:20:41.774Z,98829.82
2018-10-03T00:23:45.909Z,98840.27
2018-10-03T00:26:50.034Z,98831.14
2018-10-03T00:29:54.159Z,98833.84
2018-10-03T00:32:58.312Z,98827.91
2018-10-03T00:36:02.458Z,98838.16
2018-10-03T00:39:09.693Z,98845.62
2018-10-03T00:42:13.827Z,98836.23
2018-10-03T00:45:17.952Z,98835.41
2018-10-03T00:48:22.087Z,98831.33
2018-10-03T00:51:26.219Z,98845.59
2018-10-03T00:54:30.374Z,98824.06
2018-10-03T00:57:34.509Z,98816.08
2018-10-03T01:00:38.646Z,98813.10
2018-10-03T01:03:42.778Z,98821.70
2018-10-03T01:06:46.898Z,98828.38
2018-10-03T01:09:51.071Z,98827.05
2018-10-03T01:12:55.221Z,98830.31
2018-10-03T01:15:59.394Z,98828.96
2018-10-03T01:19:03.515Z,98831.07
2018-10-03T01:22:07.670Z,98827.34
2018-10-03T01:25:11.806Z,98824.88
2018-10-03T01:28:15.931Z,98821.97
2018-10-03T01:31:20.067Z,98808.82
2018-10-03T01:34:24.194Z,98816.92
2018-10-03T01:37:28.303Z,98814.28
2018-10-03T01:40:32.423Z,98816.71
2018-10-03T01:43:36.667Z,98808.06
2018-10-03T01:46:40.785Z,98813.52
2018-10-03T01:49:44.909Z,98816.19
2018-10-03T01:52:49.094Z,98816.19
2018-10-03T01:55:53.225Z,98820.50
2018-10-03T01:58:57.355Z,98810.83
2018-10-03T02:02:01.476Z,98815.09
2018-10-03T02:05:05.672Z,98822.66
2018-10-03T02:08:09.809Z,98818.88
2018-10-03T02:11:13.930Z,98816.98
2018-10-03T02:14:18.098Z,98828.27
2018-10-03T02:17:22.239Z,98828.05
2018-10-03T02:20:26.362Z,98830.99
2018-10-03T02:23:30.486Z,98818.91
2018-10-03T02:26:34.608Z,98823.48
2018-10-03T02:29:38.754Z,98825.34
2018-10-03T02:32:42.894Z,98827.48
2018-10-03T02:35:47.032Z,98818.36
2018-10-03T02:38:51.158Z,98810.02
2018-10-03T02:41:55.294Z,98819.47
2018-10-03T02:44:59.422Z,98834.23
2018-10-03T02:48:03.563Z,98832.63
2018-10-03T02:51:07.686Z,98827.79
2018-10-03T02:54:11.842Z,98830.22
2018-10-03T02:57:15.966Z,98827.53
2018-10-03T03:00:20.096Z,98827.80
2018-10-03T03:03:24.228Z,98822.41
2018-10-03T03:06:28.366Z,98807.91
2018-10-03T03:09:32.546Z,98806.56
2018-10-03T03:12:36.665Z,98818.92
2018-10-03T03:15:40.803Z,98828.87
2018-10-03T03:18:44.932Z,98834.77
2018-10-03T03:21:49.127Z,98834.52
2018-10-03T03:24:53.263Z,98838.83
2018-10-03T03:27:57.448Z,98842.30
2018-10-03T03:31:01.567Z,98844.98
2018-10-03T03:34:05.714Z,98843.91
2018-10-03T03:37:09.844Z,98834.80
2018-10-03T03:40:13.982Z,98838.54
2018-10-03T03:43:18.107Z,98829.69
2018-10-03T03:46:22.238Z,98833.73
2018-10-03T03:49:26.467Z,98834.27
2018-10-03T03:52:30.603Z,98841.77
2018-10-03T03:55:34.758Z,98837.20
2018-10-03T03:58:38.904Z,98836.94
2018-10-03T04:01:43.044Z,98839.38
2018-10-03T04:04:47.183Z,98845.77
2018-10-03T04:07:51.327Z,98839.56
2018-10-03T04:10:55.448Z,98850.89
2018-10-03T04:13:59.570Z,98843.63
2018-10-03T04:17:03.730Z,98857.33
2018-10-03T04:20:07.855Z,98863.23
2018-10-03T04:23:12.003Z,98860.53
2018-10-03T04:26:16.131Z,98856.23
2018-10-03T04:29:20.340Z,98857.85
2018-10-03T04:32:24.534Z,98854.92
2018-10-03T04:35:28.693Z,98876.66
2018-10-03T04:38:32.794Z,98869.72
2018-10-03T04:41:37.422Z,98866.69
2018-10-03T04:44:41.538Z,98865.93
2018-10-03T04:47:45.675Z,98850.63
2018-10-03T04:50:49.815Z,98849.56
2018-10-03T04:53:53.953Z,98840.97
2018-10-03T04:56:58.079Z,98848.20
2018-10-03T05:00:02.218Z,98843.89
2018-10-03T05:03:06.854Z,98842.86
2018-10-03T05:06:10.984Z,98848.77
2018-10-03T05:09:15.119Z,98852.77
2018-10-03T05:12:19.246Z,98848.75
2018-10-03T05:15:23.371Z,98855.47
2018-10-03T05:18:27.490Z,98855.45
2018-10-03T05:21:31.611Z,98868.64
2018-10-03T05:24:35.771Z,98872.39
2018-10-03T05:27:39.933Z,98869.45
2018-10-03T05:30:44.058Z,98883.95
2018-10-03T05:33:48.263Z,98885.56
2018-10-03T05:36:52.463Z,98901.16
2018-10-03T05:39:56.575Z,98906.23
2018-10-03T05:43:00.722Z,98913.23
2018-10-03T05:46:04.846Z,98912.98
2018-10-03T05:49:08.999Z,98906.28
2018-10-03T05:52:13.130Z,98921.88
2018-10-03T05:55:17.262Z,98917.88
2018-10-03T05:58:21.406Z,98924.86
2018-10-03T06:01:25.555Z,98923.27
2018-10-03T06:04:29.787Z,98929.17
2018-10-03T06:07:33.927Z,98930.53
2018-10-03T06:10:38.062Z,98929.68
2018-10-03T06:13:42.278Z,98933.16
2018-10-03T06:16:46.410Z,98935.33
2018-10-03T06:19:50.541Z,98948.25
2018-10-03T06:22:55.495Z,98946.42
2018-10-03T06:25:59.663Z,98957.16
2018-10-03T06:29:03.867Z,98967.13
2018-10-03T06:32:07.985Z,98966.87
2018-10-03T06:35:12.115Z,98965.80
2018-10-03T06:38:16.245Z,98970.63
2018-10-03T06:41:20.461Z,98974.39
2018-10-03T06:44:24.678Z,98986.47
2018-10-03T06:47:28.816Z,98990.50
2018-10-03T06:50:32.963Z,98995.34
2018-10-03T06:53:37.114Z,99001.23
2018-10-03T06:56:41.255Z,99001.98
2018-10-03T06:59:45.423Z,99006.27
2018-10-03T07:02:49.543Z,99007.90
2018-10-03T07:05:53.807Z,99012.74
2018-10-03T07:08:57.879Z,99020.25
2018-10-03T07:12:02.067Z,99021.12
2018-10-03T07:15:06.203Z,99018.15
2018-10-03T07:18:10.356Z,99015.45
2018-10-03T07:21:14.510Z,99018.14
2018-10-03T07:24:18.631Z,99024.33
2018-10-03T07:27:22.767Z,99035.61
2018-10-03T07:30:26.898Z,99039.88
2018-10-03T07:33:31.092Z,99046.87
2018-10-03T07:36:35.238Z,99054.15
2018-10-03T07:39:39.371Z,99056.58
2018-10-03T07:42:43.767Z,99049.56
2018-10-03T07:45:47.906Z,99047.66
2018-10-03T07:48:52.027Z,99044.18
2018-10-03T07:51:56.247Z,99055.48
2018-10-03T07:55:00.386Z,99057.92
2018-10-03T07:58:04.515Z,99050.44
2018-10-03T08:01:08.711Z,99050.44
2018-10-03T08:04:12.845Z,99044.86
2018-10-03T08:07:17.002Z,99040.31
2018-10-03T08:10:21.188Z,99034.11
2018-10-03T08:13:25.319Z,99030.91
2018-10-03T08:16:29.461Z,99035.73
2018-10-03T08:19:33.582Z,99034.42
2018-10-03T08:22:37.723Z,99039.80
2018-10-03T08:25:41.866Z,99048.96
2018-10-03T08:28:45.997Z,99055.70
2018-10-03T08:31:50.155Z,99060.30
2018-10-03T08:34:54.304Z,99067.56
2018-10-03T08:37:58.559Z,99071.60
2018-10-03T08:41:02.701Z,99068.97
2018-10-03T08:44:07.011Z,99078.42
2018-10-03T08:47:11.146Z,99074.17
2018-10-03T08:50:15.318Z,99075.25
2018-10-03T08:53:19.432Z,99077.41
2018-10-03T08:56:23.564Z,99075.55
2018-10-03T08:59:27.683Z,99072.30
2018-10-03T09:02:31.826Z,99072.56
2018-10-03T09:05:36.032Z,99078.74
2018-10-03T09:08:40.169Z,99071.43
2018-10-03T09:11:44.382Z,99067.08
2018-10-03T09:14:48.428Z,99064.61
2018-10-03T09:17:52.674Z,99069.69
2018-10-03T09:20:56.811Z,99071.78
2018-10-03T09:24:00.947Z,99069.86
2018-10-03T09:27:05.091Z,99079.80
2018-10-03T09:30:09.224Z,99084.88
2018-10-03T09:33:13.360Z,99088.38
2018-10-03T09:36:17.531Z,99092.14
2018-10-03T09:39:21.672Z,99084.23
2018-10-03T09:42:25.799Z,99085.25
2018-10-03T09:45:29.919Z,99083.29
2018-10-03T09:48:34.047Z,99086.69
2018-10-03T09:51:38.295Z,99084.95
2018-10-03T09:54:42.440Z,99091.61
2018-10-03T09:57:46.562Z,99087.74
2018-10-03T10:00:56.179Z,99088.20
2018-10-03T10:04:01.416Z,99091.23
2018-10-03T10:07:05.555Z,99077.49
2018-10-03T10:10:09.688Z,99084.52
2018-10-03T10:13:13.823Z,99081.23
2018-10-03T10:16:17.959Z,99090.44
2018-10-03T10:19:22.083Z,99090.25
2018-10-03T10:22:26.215Z,99097.45
2018-10-03T10:25:30.351Z,99093.88
2018-10-03T10:28:34.488Z,99093.94
2018-10-03T10:31:38.643Z,99098.73
2018-10-03T10:34:42.737Z,99105.32
2018-10-03T10:37:46.986Z,99100.80
2018-10-03T10:40:51.161Z,99103.17
2018-10-03T10:43:55.302Z,99106.09
2018-10-03T10:46:59.430Z,99105.23
2018-10-03T10:50:03.572Z,99103.28
2018-10-03T10:53:07.884Z,99104.57
2018-10-03T10:56:12.096Z,99101.86
2018-10-03T10:59:16.235Z,99099.64
2018-10-03T11:02:20.411Z,99108.52
2018-10-03T11:05:24.597Z,99114.97
2018-10-03T11:08:28.727Z,99115.75
2018-10-03T11:11:32.863Z,99115.93
2018-10-03T11:14:36.983Z,99111.83
2018-10-03T11:17:41.114Z,99103.03
2018-10-03T11:20:46.107Z,99107.03
2018-10-03T11:23:50.944Z,99114.09
2018-10-03T11:26:55.967Z,99110.64
2018-10-03T11:30:00.190Z,99098.14
2018-10-03T11:33:04.333Z,99113.94
2018-10-03T11:36:08.459Z,99102.31
2018-10-03T11:39:12.587Z,99106.92
2018-10-03T11:42:16.745Z,99100.93
2018-10-03T11:45:20.882Z,99095.63
2018-10-03T11:48:26.093Z,99098.12
2018-10-03T11:51:31.961Z,99094.42
2018-10-03T11:54:37.871Z,99097.88
2018-10-03T11:57:43.357Z,99107.43
2018-10-03T12:00:48.324Z,99108.25
2018-10-03T12:03:52.515Z,99109.98
2018-10-03T12:06:56.720Z,99113.83
2018-10-03T12:10:00.852Z,99106.80
2018-10-03T12:13:04.994Z,99110.30
2018-10-03T12:16:09.159Z,99103.66
2018-10-03T12:19:13.289Z,99111.86
2018-10-03T12:22:17.405Z,99110.53
2018-10-03T12:25:21.631Z,99109.41
2018-10-03T12:28:25.994Z,99102.84
2018-10-03T12:31:30.132Z,99104.99
2018-10-03T12:34:34.255Z,99112.63
2018-10-03T12:37:38.379Z,99112.94
2018-10-03T12:40:42.515Z,99113.92
2018-10-03T12:43:46.639Z,99121.00
2018-10-03T12:46:50.778Z,99120.19
2018-10-03T12:49:54.910Z,99117.54
2018-10-03T12:52:59.051Z,99120.69
2018-10-03T12:56:03.392Z,99118.67
2018-10-03T12:59:07.515Z,99117.16
2018-10-03T13:02:11.650Z,99118.45
2018-10-03T13:05:15.787Z,99114.39
2018-10-03T13:08:19.910Z,99113.56
2018-10-03T13:11:24.038Z,99106.87
2018-10-03T13:14:28.155Z,99114.03
2018-10-03T13:17:32.295Z,99108.67
2018-10-03T13:20:36.426Z,99109.75
2018-10-03T13:23:40.547Z,99107.55
2018-10-03T13:26:44.669Z,99103.78
2018-10-03T13:29:48.790Z,99102.97
2018-10-03T13:32:52.922Z,99110.56
2018-10-03T13:35:57.083Z,99110.23
2018-10-03T13:39:01.227Z,99109.14
2018-10-03T13:42:05.503Z,99110.47
2018-10-03T13:45:09.631Z,99104.98
2018-10-03T13:48:13.779Z,99113.23
2018-10-03T13:51:17.907Z,99103.06
2018-10-03T13:54:22.035Z,99100.50
2018-10-03T13:57:26.167Z,99101.86
2018-10-03T14:00:30.307Z,99096.46
2018-10-03T14:03:34.435Z,99089.20
2018-10-03T14:06:38.646Z,99091.42
2018-10-03T14:09:42.775Z,99102.45
2018-10-03T14:12:46.951Z,99096.52
2018-10-03T14:15:51.221Z,99101.74
2018-10-03T14:18:55.340Z,99097.58
2018-10-03T14:21:59.471Z,99101.45
2018-10-03T14:25:03.604Z,99101.20
2018-10-03T14:28:07.825Z,99100.96
2018-10-03T14:31:12.033Z,99105.44
2018-10-03T14:34:16.155Z,99098.59
2018-10-03T14:37:20.283Z,99090.91
2018-10-03T14:40:24.515Z,99094.02
2018-10-03T14:43:28.638Z,99087.73
2018-10-03T14:46:32.811Z,99094.16
2018-10-03T14:49:37.206Z,99089.39
2018-10-03T14:52:41.393Z,99094.53
2018-10-03T14:55:45.508Z,99090.53
2018-10-03T14:58:49.965Z,99089.61
2018-10-03T15:01:54.106Z,99090.53
2018-10-03T15:04:58.242Z,99094.40
2018-10-03T15:08:02.379Z,99092.55
2018-10-03T15:11:06.535Z,99087.95
2018-10-03T15:14:10.666Z,99098.89
2018-10-03T15:17:14.845Z,99090.25
2018-10-03T15:20:18.961Z,99097.34
2018-10-03T15:23:23.103Z,99093.08
2018-10-03T15:26:27.222Z,99093.67
2018-10-03T15:29:31.338Z,99095.11
2018-10-03T15:32:35.515Z,99097.19
2018-10-03T15:35:39.639Z,99099.88
2018-10-03T15:38:43.771Z,99105.10
2018-10-03T15:41:47.966Z,99104.20
2018-10-03T15:44:52.074Z,99108.27
2018-10-03T15:47:56.207Z,99115.08
2018-10-03T15:51:00.342Z,99124.10
2018-10-03T15:54:04.534Z,99126.40
2018-10-03T15:57:08.651Z,99122.82
2018-10-03T16:00:12.787Z,99127.47
2018-10-03T16:03:16.938Z,99121.77
2018-10-03T16:06:21.080Z,99125.98
2018-10-03T16:09:25.240Z,99124.36
2018-10-03T16:12:29.331Z,99133.09
2018-10-03T16:15:33.544Z,99135.55
2018-10-03T16:18:37.658Z,99135.80
2018-10-03T16:21:41.801Z,99135.03
2018-10-03T16:24:45.955Z,99143.98
2018-10-03T16:27:50.078Z,99139.94
2018-10-03T16:30:54.250Z,99147.33
2018-10-03T16:33:58.402Z,99154.67
2018-10-03T16:37:02.575Z,99157.20
2018-10-03T16:40:07.356Z,99157.78
2018-10-03T16:43:11.520Z,99162.66
2018-10-03T16:46:15.627Z,99161.34
2018-10-03T16:49:19.766Z,99167.05
2018-10-03T16:52:23.898Z,99173.03
2018-10-03T16:55:29.225Z,99172.02
2018-10-03T16:58:33.351Z,99174.15
2018-10-03T17:01:37.918Z,99182.80
2018-10-03T17:04:42.076Z,99185.22
2018-10-03T17:07:46.202Z,99184.16
2018-10-03T17:10:50.331Z,99182.81
2018-10-03T17:14:33.132Z,99184.67
2018-10-03T17:17:37.270Z,99187.38
2018-10-03T17:20:41.395Z,99193.53
2018-10-03T17:23:45.558Z,99195.69
2018-10-03T17:26:49.666Z,99200.79
2018-10-03T17:29:53.821Z,99206.69
2018-10-03T17:32:57.992Z,99207.20
2018-10-03T17:36:02.109Z,99205.25
2018-10-03T17:39:07.346Z,99215.72
2018-10-03T17:42:11.478Z,99210.28
2018-10-03T17:45:15.626Z,99208.12
2018-10-03T17:48:19.743Z,99213.50
2018-10-03T17:51:24.167Z,99220.72
2018-10-03T17:54:28.323Z,99221.77
2018-10-03T17:57:32.472Z,99219.03
2018-10-03T18:00:36.617Z,99216.06
2018-10-03T18:03:40.751Z,99215.44
2018-10-03T18:06:44.876Z,99218.61
2018-10-03T18:09:49.006Z,99216.89
2018-10-03T18:12:53.184Z,99220.64
2018-10-03T18:15:57.307Z,99221.69
2018-10-03T18:19:01.475Z,99223.01
2018-10-03T18:22:05.680Z,99237.47
2018-10-03T18:25:09.779Z,99234.78
2018-10-03T18:28:13.898Z,99238.03
2018-10-03T18:31:18.027Z,99240.45
2018-10-03T18:34:22.207Z,99238.27
2018-10-03T18:37:26.335Z,99241.70
2018-10-03T18:40:30.455Z,99241.97
2018-10-03T18:43:34.656Z,99245.71
2018-10-03T18:46:38.818Z,99252.40
2018-10-03T18:49:42.914Z,99247.48
2018-10-03T18:52:47.107Z,99244.56
2018-10-03T18:55:51.718Z,99241.28
2018-10-03T18:58:55.867Z,99242.11
2018-10-03T19:02:00.031Z,99252.03
2018-10-03T19:05:04.167Z,99249.02
2018-10-03T19:08:08.310Z,99259.10
2018-10-03T19:11:12.522Z,99264.66
2018-10-03T19:14:16.658Z,99265.19
2018-10-03T19:17:20.802Z,99266.48
2018-10-03T19:20:24.951Z,99270.66
2018-10-03T19:23:29.158Z,99266.84
2018-10-03T19:26:33.326Z,99274.08
2018-10-03T19:29:37.470Z,99273.73
2018-10-03T19:32:41.656Z,99275.52
2018-10-03T19:35:45.815Z,99277.15
2018-10-03T19:38:49.932Z,99277.41
2018-10-03T19:41:54.098Z,99275.52
2018-10-03T19:44:58.251Z,99280.06
2018-10-03T19:48:02.512Z,99283.30
2018-10-03T19:51:06.603Z,99292.44
2018-10-03T19:54:10.751Z,99290.31
2018-10-03T19:57:14.900Z,99287.24
2018-10-03T20:00:19.112Z,99288.32
2018-10-03T20:03:23.408Z,99288.62
2018-10-03T20:06:27.487Z,99285.43
2018-10-03T20:09:31.620Z,99284.73
2018-10-03T20:12:35.756Z,99287.63
2018-10-03T20:15:39.987Z,99289.23
2018-10-03T20:18:44.542Z,99289.67
2018-10-03T20:21:48.814Z,99299.41
2018-10-03T20:24:53.003Z,99291.41
2018-10-03T20:27:57.140Z,99296.50
2018-10-03T20:31:01.294Z,99298.02
2018-10-03T20:34:05.476Z,99305.13
2018-10-03T20:37:09.558Z,99302.19
2018-10-03T20:40:13.719Z,99298.72
2018-10-03T20:43:17.931Z,99303.05
2018-10-03T20:46:22.175Z,99304.27
2018-10-03T20:49:32.949Z,99303.45
2018-10-03T20:52:37.130Z,99299.98
2018-10-03T20:55:41.287Z,99298.59
2018-10-03T20:58:45.472Z,99301.02
2018-10-03T21:01:49.611Z,99300.80
2018-10-03T21:04:53.794Z,99304.88
2018-10-03T21:07:57.948Z,99305.91
2018-10-03T21:11:02.122Z,99310.42
2018-10-03T21:14:06.307Z,99312.16
2018-10-03T21:17:10.602Z,99319.03
2018-10-03T21:20:14.775Z,99318.86
2018-10-03T21:23:18.981Z,99319.38
2018-10-03T21:26:23.151Z,99321.24
2018-10-03T21:29:27.314Z,99323.41
2018-10-03T21:32:31.506Z,99332.75
2018-10-03T21:35:35.687Z,99329.71
2018-10-03T21:38:39.842Z,99343.41
2018-10-03T21:41:44.004Z,99346.30
2018-10-03T21:44:48.442Z,99337.89
2018-10-03T21:47:52.598Z,99330.14
2018-10-03T21:50:56.808Z,99333.87
2018-10-03T21:54:00.955Z,99330.15
2018-10-03T21:57:05.118Z,99330.77
2018-10-03T22:00:09.949Z,99328.90
2018-10-03T22:03:14.195Z,99323.44
2018-10-03T22:06:18.347Z,99327.01
2018-10-03T22:09:22.494Z,99324.94
2018-10-03T22:12:26.650Z,99327.94
2018-10-03T22:15:30.806Z,99322.87
2018-10-03T22:18:34.967Z,99327.09
2018-10-03T22:21:39.127Z,99326.02
2018-10-03T22:24:43.283Z,99319.82
2018-10-03T22:27:47.423Z,99322.40
2018-10-03T22:30:52.006Z,99316.16
2018-10-03T22:33:56.191Z,99323.44
2018-10-03T22:37:00.350Z,99326.67
2018-10-03T22:40:04.526Z,99327.30
2018-10-03T22:43:08.718Z,99333.66
2018-10-03T22:46:12.871Z,99328.03
2018-10-03T22:49:17.059Z,99327.41
2018-10-03T22:52:21.222Z,99329.56
2018-10-03T22:55:25.379Z,99325.56
2018-10-03T22:58:29.528Z,99327.26
2018-10-03T23:01:33.696Z,99334.75
2018-10-03T23:04:44.573Z,99333.27
2018-10-03T23:07:48.742Z,99326.19
2018-10-03T23:10:52.899Z,99327.77
2018-10-03T23:13:57.025Z,99322.80
2018-10-03T23:17:01.196Z,99327.53
2018-10-03T23:20:05.350Z,99328.27
2018-10-03T23:23:09.524Z,99327.64
2018-10-03T23:26:13.670Z,99335.78
2018-10-03T23:29:17.831Z,99337.91
2018-10-03T23:32:21.975Z,99338.73
2018-10-03T23:35:26.132Z,99335.33
2018-10-03T23:38:30.285Z,99337.48
2018-10-03T23:41:34.521Z,99334.14
2018-10-03T23:44:38.663Z,99333.84
2018-10-03T23:47:42.815Z,99334.66
2018-10-03T23:50:46.978Z,99341.97
2018-10-03T23:53:51.143Z,99350.18
2018-10-03T23:56:55.308Z,99347.59
2018-10-03T23:59:59.463Z,99343.33
